Terminal Aerodrome Forecast
Issued by NWS Charleston, WV

Current Version | Previous Version | Graphics & Text | Print | Product List | Glossary On
Versions: 1 2 3 4 5 6 7 8 9 10 11 12 13 14 15 16 17 18 19 20 21 22 23 24 25 26
000
FTUS41 KRLX 201400 AAA
TAFBKW
TAF AMD
KBKW 201457Z 2015/2112 00000KT P6SM SCT015 BKN080
     FM201600 00000KT P6SM OVC015
     FM210500 00000KT P6SM BKN024
     FM210800 00000KT P6SM BKN250=

USA.gov is the U.S. government's official web portal to all federal, state and local government web resources and services.